Time;durP1;ratioP1;P1;durP2;ratioP2;P2;SDS_P1;SDS_P2;PMS_P1;PMS_P2;Temp;Humidity;BMP_temperature;BMP_pressure;BME280_temperature;BME280_humidity;BME280_pressure;Samples;Min_cycle;Max_cycle;Signal;HPM_P1;HPM_P2
2023/05/29 00:00:18;;;;;;;16.70;3.97;;;10.50;99.90;;;;;;5081115;28;20305;-72
2023/05/29 00:02:44;;;;;;;16.97;3.67;;;10.40;99.90;;;;;;5116340;28;20059;-72
2023/05/29 00:05:12;;;;;;;18.50;4.07;;;10.40;99.90;;;;;;5116107;28;20749;-72
2023/05/29 00:07:39;;;;;;;14.73;3.13;;;10.40;99.90;;;;;;5115905;28;20304;-72
2023/05/29 00:10:06;;;;;;;15.80;3.57;;;10.50;99.90;;;;;;5115783;28;20757;-72
2023/05/29 00:12:32;;;;;;;17.37;3.10;;;10.40;99.90;;;;;;5081022;28;20289;-73
2023/05/29 00:14:58;;;;;;;22.20;4.17;;;10.40;99.90;;;;;;5097833;28;20602;-72
2023/05/29 00:17:24;;;;;;;13.97;3.07;;;10.40;99.90;;;;;;5097615;28;20044;-73
2023/05/29 00:19:50;;;;;;;12.03;2.53;;;10.40;99.90;;;;;;5097334;28;20059;-72
2023/05/29 00:22:16;;;;;;;16.67;3.77;;;10.40;99.90;;;;;;5081326;28;20292;-72
2023/05/29 00:24:42;;;;;;;12.63;2.60;;;10.40;99.90;;;;;;5115603;28;20368;-72
2023/05/29 00:27:08;;;;;;;18.10;4.60;;;10.30;99.90;;;;;;5080499;28;20389;-73
2023/05/29 00:29:35;;;;;;;11.27;2.40;;;10.30;99.90;;;;;;5064050;28;20043;-72
2023/05/29 00:32:01;;;;;;;16.43;3.03;;;10.30;99.90;;;;;;5081262;28;20626;-72
2023/05/29 00:34:27;;;;;;;13.23;2.80;;;10.30;99.90;;;;;;5115360;28;20823;-72
2023/05/29 00:36:55;;;;;;;9.50;2.40;;;10.20;99.90;;;;;;5115534;28;20364;-72
2023/05/29 00:39:21;;;;;;;18.47;3.30;;;10.20;99.90;;;;;;5115426;28;20043;-72
2023/05/29 00:41:50;;;;;;;13.37;3.37;;;10.20;99.90;;;;;;5080664;28;20287;-72
2023/05/29 00:44:18;;;;;;;10.07;3.43;;;10.20;99.90;;;;;;5097921;28;20273;-72
2023/05/29 00:46:45;;;;;;;12.37;3.37;;;10.20;99.90;;;;;;5096355;28;20286;-72
2023/05/29 00:49:11;;;;;;;18.87;3.17;;;10.10;99.90;;;;;;5080742;28;20272;-72
2023/05/29 00:51:38;;;;;;;15.70;3.57;;;10.10;99.90;;;;;;5097133;28;20288;-73
2023/05/29 00:54:06;;;;;;;16.03;3.53;;;10.10;99.90;;;;;;5097142;28;20282;-72
2023/05/29 00:56:34;;;;;;;17.00;2.87;;;10.10;99.90;;;;;;5096928;28;20316;-72
2023/05/29 00:59:00;;;;;;;15.37;3.43;;;10.00;99.90;;;;;;5097021;28;20331;-72
2023/05/29 01:01:26;;;;;;;15.97;3.00;;;10.00;99.90;;;;;;5114767;28;20277;-72
2023/05/29 01:03:55;;;;;;;12.50;3.30;;;10.10;99.90;;;;;;5114950;28;20495;-72
2023/05/29 01:06:21;;;;;;;15.03;2.67;;;10.10;99.90;;;;;;5097078;28;20280;-72
2023/05/29 01:08:46;;;;;;;15.93;3.30;;;10.00;99.90;;;;;;5079663;28;20372;-72
2023/05/29 01:11:26;;;;;;;13.53;3.07;;;10.10;99.90;;;;;;5096779;28;20040;-72
2023/05/29 01:13:56;;;;;;;11.63;2.93;;;10.00;99.90;;;;;;5114633;28;20048;-72
2023/05/29 01:16:33;;;;;;;13.57;2.30;;;10.00;99.90;;;;;;5097033;28;20277;-72
2023/05/29 01:19:37;;;;;;;13.57;2.57;;;10.00;99.90;;;;;;5096495;28;21496;-72
2023/05/29 01:22:25;;;;;;;16.87;3.97;;;10.00;99.90;;;;;;5114386;28;20756;-72
2023/05/29 01:25:04;;;;;;;19.03;3.27;;;10.00;99.90;;;;;;5114458;28;20278;-72
2023/05/29 01:27:32;;;;;;;15.93;3.10;;;10.00;99.90;;;;;;5097445;28;20266;-72
2023/05/29 01:29:58;;;;;;;14.23;2.63;;;9.90;99.90;;;;;;5079777;28;20288;-72
2023/05/29 01:32:25;;;;;;;16.03;3.67;;;9.90;99.90;;;;;;5096694;28;20775;-72
2023/05/29 01:34:51;;;;;;;17.00;3.43;;;9.90;99.90;;;;;;5095822;28;20618;-72
2023/05/29 01:37:17;;;;;;;14.13;2.67;;;10.00;99.90;;;;;;5114514;28;20281;-72
2023/05/29 01:39:43;;;;;;;12.57;2.80;;;10.00;99.90;;;;;;5095970;28;20449;-72
2023/05/29 01:42:09;;;;;;;11.60;3.20;;;10.00;99.90;;;;;;5114363;28;20143;-72
2023/05/29 01:44:37;;;;;;;13.53;3.10;;;10.00;99.90;;;;;;5096160;28;20334;-72
2023/05/29 01:47:03;;;;;;;17.67;3.40;;;10.00;99.90;;;;;;5114455;28;20288;-72
2023/05/29 01:49:31;;;;;;;17.40;2.60;;;10.10;99.90;;;;;;5096232;28;20296;-72
2023/05/29 01:51:57;;;;;;;16.20;3.80;;;10.10;99.90;;;;;;5096004;28;20312;-72
2023/05/29 01:54:23;;;;;;;17.07;3.80;;;10.00;99.90;;;;;;5114201;28;20276;-72
2023/05/29 01:56:50;;;;;;;16.00;3.47;;;10.00;99.90;;;;;;5113760;28;20277;-72
2023/05/29 01:59:15;;;;;;;14.13;2.80;;;10.00;99.90;;;;;;5079195;28;20079;-72
2023/05/29 02:01:41;;;;;;;13.80;3.17;;;9.90;99.90;;;;;;5113645;28;20313;-73
2023/05/29 02:04:07;;;;;;;15.47;3.10;;;9.90;99.90;;;;;;5096009;28;20093;-73
2023/05/29 02:06:33;;;;;;;18.80;3.17;;;9.80;99.90;;;;;;5113586;28;20112;-73
2023/05/29 02:08:59;;;;;;;16.10;3.07;;;9.80;99.90;;;;;;5095916;28;20273;-73
2023/05/29 02:11:26;;;;;;;18.03;3.10;;;9.80;99.90;;;;;;5095655;28;20285;-73
2023/05/29 02:13:52;;;;;;;15.10;4.17;;;9.90;99.90;;;;;;5095581;28;20066;-73
2023/05/29 02:16:20;;;;;;;15.70;3.23;;;9.90;99.90;;;;;;5095947;28;20675;-72
2023/05/29 02:18:46;;;;;;;13.87;3.07;;;10.00;99.90;;;;;;5095424;28;20297;-73
2023/05/29 02:21:12;;;;;;;14.43;4.00;;;10.00;99.90;;;;;;5113931;28;20365;-73
2023/05/29 02:23:38;;;;;;;12.10;2.63;;;10.00;99.90;;;;;;5095000;28;20780;-73
2023/05/29 02:26:04;;;;;;;11.87;3.20;;;10.00;99.90;;;;;;5095324;28;20281;-73
2023/05/29 02:28:30;;;;;;;11.33;2.80;;;10.10;99.90;;;;;;5078831;28;20488;-73
2023/05/29 02:30:56;;;;;;;15.00;3.10;;;10.00;99.90;;;;;;5113227;28;20285;-73
2023/05/29 02:33:21;;;;;;;14.17;3.47;;;10.00;99.90;;;;;;5095499;28;20047;-73
2023/05/29 02:35:47;;;;;;;14.60;2.90;;;10.00;99.90;;;;;;5113460;28;20156;-73
2023/05/29 02:38:13;;;;;;;20.43;3.77;;;10.00;99.90;;;;;;5113554;28;20101;-73
2023/05/29 02:40:39;;;;;;;17.40;3.10;;;9.90;99.90;;;;;;5113048;28;20082;-73
2023/05/29 02:43:06;;;;;;;13.27;2.87;;;9.90;99.90;;;;;;5095747;28;20089;-73
2023/05/29 02:45:31;;;;;;;20.43;3.37;;;9.90;99.90;;;;;;5095162;28;20051;-73
2023/05/29 02:47:57;;;;;;;12.70;3.37;;;9.90;99.90;;;;;;5113056;28;20281;-73
2023/05/29 02:50:23;;;;;;;16.87;3.80;;;9.90;99.90;;;;;;5113342;28;20047;-73
2023/05/29 02:52:49;;;;;;;15.50;2.83;;;9.90;99.90;;;;;;5078163;28;20042;-74
2023/05/29 02:55:15;;;;;;;9.10;2.40;;;10.00;99.90;;;;;;5113286;28;20052;-73
2023/05/29 02:57:41;;;;;;;13.47;2.57;;;10.00;99.90;;;;;;5112923;28;20047;-74
2023/05/29 03:00:08;;;;;;;14.93;2.70;;;10.00;99.90;;;;;;5078388;28;20333;-73
2023/05/29 03:02:35;;;;;;;19.03;4.37;;;10.00;99.90;;;;;;5095466;28;20273;-73
2023/05/29 03:05:01;;;;;;;17.80;3.53;;;10.00;99.90;;;;;;5095116;28;20281;-73
2023/05/29 03:07:27;;;;;;;19.20;4.77;;;10.00;99.90;;;;;;5113420;28;20313;-73
2023/05/29 03:09:53;;;;;;;19.40;3.97;;;10.00;99.90;;;;;;5096357;28;20288;-73
2023/05/29 03:12:19;;;;;;;17.50;3.37;;;10.10;99.90;;;;;;5117298;28;20361;-73
2023/05/29 03:14:45;;;;;;;18.83;4.00;;;10.00;99.90;;;;;;5082174;28;20350;-74
2023/05/29 03:17:11;;;;;;;16.37;2.90;;;10.10;99.90;;;;;;5117186;28;20052;-73
2023/05/29 03:19:38;;;;;;;14.13;3.47;;;10.10;99.90;;;;;;5117028;28;20057;-73
2023/05/29 03:22:04;;;;;;;18.20;3.80;;;10.10;99.90;;;;;;5098786;28;20291;-73
2023/05/29 03:24:30;;;;;;;21.23;3.90;;;10.10;99.90;;;;;;5099040;28;20348;-73
2023/05/29 03:26:55;;;;;;;14.33;2.77;;;10.10;99.90;;;;;;5098696;28;20285;-73
2023/05/29 03:29:21;;;;;;;17.03;3.50;;;10.10;99.90;;;;;;5117157;28;20054;-73
2023/05/29 03:31:47;;;;;;;17.83;3.47;;;10.20;99.90;;;;;;5116630;28;20498;-74
2023/05/29 03:34:13;;;;;;;18.00;4.10;;;10.20;99.90;;;;;;5098689;28;20047;-73
2023/05/29 03:36:39;;;;;;;15.80;3.77;;;10.20;99.90;;;;;;5098872;28;20047;-73
2023/05/29 03:39:06;;;;;;;12.47;3.03;;;10.20;99.90;;;;;;5116426;28;20126;-74
2023/05/29 03:41:32;;;;;;;13.07;3.27;;;10.20;99.90;;;;;;5116710;28;20281;-73
2023/05/29 03:43:57;;;;;;;11.03;3.43;;;10.20;99.90;;;;;;5098417;28;20289;-74
2023/05/29 03:46:23;;;;;;;14.23;2.97;;;10.20;99.90;;;;;;5116619;28;20047;-73
2023/05/29 03:48:49;;;;;;;15.27;3.50;;;10.20;99.90;;;;;;5098271;28;20055;-74
2023/05/29 03:51:15;;;;;;;13.53;3.57;;;10.30;99.90;;;;;;5098512;28;20053;-73
2023/05/29 03:53:40;;;;;;;15.47;3.73;;;10.30;99.90;;;;;;5116635;28;20043;-73
2023/05/29 03:56:06;;;;;;;12.13;3.23;;;10.30;99.90;;;;;;5116239;28;20278;-74
2023/05/29 03:58:32;;;;;;;14.73;2.80;;;10.30;99.90;;;;;;5098202;28;20086;-73
2023/05/29 04:00:58;;;;;;;16.53;3.33;;;10.30;99.90;;;;;;5116022;28;20542;-73
2023/05/29 04:03:23;;;;;;;16.83;3.10;;;10.30;99.90;;;;;;5081498;28;20054;-73
2023/05/29 04:05:49;;;;;;;14.53;3.30;;;10.40;99.90;;;;;;5098068;28;20521;-73
2023/05/29 04:08:15;;;;;;;18.20;3.53;;;10.40;99.90;;;;;;5116185;28;20123;-73
2023/05/29 04:10:41;;;;;;;16.70;3.27;;;10.40;99.90;;;;;;5116300;28;20039;-73
2023/05/29 04:13:07;;;;;;;15.30;3.10;;;10.40;99.90;;;;;;5081033;28;20218;-73
2023/05/29 04:15:36;;;;;;;14.47;3.30;;;10.50;99.90;;;;;;5081210;28;20055;-73
2023/05/29 04:18:01;;;;;;;14.50;3.33;;;10.50;99.90;;;;;;5097736;28;20506;-73
2023/05/29 04:20:27;;;;;;;14.63;3.17;;;10.50;99.90;;;;;;5115262;28;20301;-73
2023/05/29 04:22:53;;;;;;;15.27;2.70;;;10.50;99.90;;;;;;5114950;28;20052;-74
2023/05/29 04:25:18;;;;;;;14.63;2.60;;;10.50;99.90;;;;;;5115925;28;20059;-73
2023/05/29 04:27:48;;;;;;;13.90;3.33;;;10.60;99.90;;;;;;5115827;28;20054;-73
2023/05/29 04:30:16;;;;;;;14.63;3.07;;;10.60;99.90;;;;;;5115703;28;20097;-73
2023/05/29 04:32:42;;;;;;;13.83;2.70;;;10.70;99.90;;;;;;5080943;28;20289;-73
2023/05/29 04:35:09;;;;;;;14.40;2.90;;;10.70;99.90;;;;;;5097322;28;20314;-73
2023/05/29 04:37:38;;;;;;;15.37;3.53;;;10.80;99.90;;;;;;5097731;28;20682;-73
2023/05/29 04:40:08;;;;;;;12.67;3.23;;;10.90;99.90;;;;;;5115219;28;20296;-73
2023/05/29 04:42:39;;;;;;;19.93;3.07;;;10.90;99.90;;;;;;5080770;28;20402;-73
2023/05/29 04:45:05;;;;;;;13.33;2.43;;;10.90;99.90;;;;;;5097362;28;20339;-73
2023/05/29 04:47:32;;;;;;;14.27;3.00;;;11.00;99.90;;;;;;5115423;28;20342;-73
2023/05/29 04:50:00;;;;;;;14.77;3.30;;;11.10;99.90;;;;;;5097201;28;20766;-73
2023/05/29 04:52:26;;;;;;;14.40;3.43;;;11.10;99.90;;;;;;5115377;28;20273;-73
2023/05/29 04:54:52;;;;;;;10.70;2.70;;;11.10;99.90;;;;;;5097235;28;20822;-75
2023/05/29 04:57:17;;;;;;;17.53;2.90;;;11.10;99.90;;;;;;5115364;28;20281;-73
2023/05/29 04:59:43;;;;;;;12.00;2.37;;;11.20;99.90;;;;;;5080269;28;20527;-73
2023/05/29 05:02:09;;;;;;;17.30;3.80;;;11.20;99.90;;;;;;5096716;28;20419;-73
2023/05/29 05:04:35;;;;;;;10.37;2.53;;;11.30;99.90;;;;;;5096856;28;20135;-73
2023/05/29 05:07:01;;;;;;;11.37;3.40;;;11.30;99.90;;;;;;5096732;28;20047;-73
2023/05/29 05:09:27;;;;;;;13.97;3.03;;;11.40;99.90;;;;;;5115121;28;20054;-73
2023/05/29 05:11:53;;;;;;;14.33;4.00;;;11.40;99.90;;;;;;5096589;28;20278;-73
2023/05/29 05:14:19;;;;;;;14.73;3.40;;;11.50;99.90;;;;;;5080027;28;20426;-73
2023/05/29 05:16:45;;;;;;;14.33;2.80;;;11.50;99.90;;;;;;5096983;28;20467;-73
2023/05/29 05:19:11;;;;;;;11.20;2.70;;;11.60;99.90;;;;;;5096337;28;20059;-73
2023/05/29 05:21:36;;;;;;;14.57;2.40;;;11.70;99.90;;;;;;5114809;28;20422;-73
2023/05/29 05:24:02;;;;;;;12.13;2.93;;;11.90;99.90;;;;;;5114520;28;20096;-73
2023/05/29 05:26:28;;;;;;;14.40;2.60;;;11.90;99.90;;;;;;5114606;28;20044;-73
2023/05/29 05:28:53;;;;;;;12.87;2.40;;;12.10;99.90;;;;;;5096685;28;20050;-73
2023/05/29 05:31:19;;;;;;;13.27;2.63;;;12.10;99.90;;;;;;5114359;28;20483;-73
2023/05/29 05:33:45;;;;;;;9.73;2.87;;;12.30;99.90;;;;;;5114251;28;20039;-72
2023/05/29 05:36:11;;;;;;;14.30;3.10;;;12.40;99.90;;;;;;5114315;28;20054;-73
2023/05/29 05:38:37;;;;;;;10.97;2.40;;;12.60;99.90;;;;;;5096157;28;20282;-73
2023/05/29 05:41:03;;;;;;;16.63;3.73;;;12.70;99.90;;;;;;5114230;28;20051;-73
2023/05/29 05:43:29;;;;;;;12.93;3.00;;;12.70;99.90;;;;;;5114374;28;20089;-73
2023/05/29 05:45:55;;;;;;;12.23;2.77;;;12.70;99.90;;;;;;5096284;28;20048;-73
2023/05/29 05:48:21;;;;;;;18.33;2.83;;;13.00;99.90;;;;;;5095972;28;20312;-73
2023/05/29 05:50:46;;;;;;;17.47;3.67;;;13.30;99.90;;;;;;5096135;28;20130;-72
2023/05/29 05:53:12;;;;;;;11.60;2.43;;;13.30;99.90;;;;;;5095666;28;20048;-73
2023/05/29 05:55:38;;;;;;;15.23;3.30;;;13.40;99.90;;;;;;5114252;28;20098;-73
2023/05/29 05:58:04;;;;;;;11.30;2.50;;;13.40;99.90;;;;;;5113726;28;20085;-73
2023/05/29 06:00:29;;;;;;;10.77;3.57;;;13.30;99.90;;;;;;5095920;28;20040;-73
2023/05/29 06:02:55;;;;;;;13.03;2.90;;;13.40;99.90;;;;;;5113976;28;20043;-72
2023/05/29 06:05:21;;;;;;;11.87;3.17;;;13.60;99.90;;;;;;5095839;28;20475;-73
2023/05/29 06:07:46;;;;;;;17.67;3.53;;;13.60;99.90;;;;;;5113928;28;20391;-73
2023/05/29 06:10:13;;;;;;;15.90;3.77;;;13.60;99.90;;;;;;5113563;28;20049;-73
2023/05/29 06:12:38;;;;;;;10.87;2.60;;;13.70;99.90;;;;;;5113841;28;20043;-73
2023/05/29 06:15:05;;;;;;;18.87;3.67;;;14.00;99.90;;;;;;5113635;28;20281;-73
2023/05/29 06:17:31;;;;;;;15.70;3.80;;;14.40;99.90;;;;;;5095934;28;20053;-73
2023/05/29 06:19:57;;;;;;;15.63;3.20;;;14.60;99.90;;;;;;5095330;28;20392;-73
2023/05/29 06:22:23;;;;;;;10.37;2.70;;;14.70;99.90;;;;;;5095311;28;20804;-73
2023/05/29 06:24:48;;;;;;;14.13;3.03;;;15.00;99.90;;;;;;5113633;28;20047;-73
2023/05/29 06:27:14;;;;;;;14.13;3.20;;;15.10;99.90;;;;;;5095195;28;20078;-73
2023/05/29 06:29:40;;;;;;;17.70;3.50;;;15.30;99.90;;;;;;5113811;28;20044;-73
2023/05/29 06:32:06;;;;;;;16.00;3.30;;;14.90;99.90;;;;;;5113392;28;20050;-73
2023/05/29 06:34:32;;;;;;;16.47;3.30;;;14.50;99.90;;;;;;5095749;28;20282;-73
2023/05/29 06:36:57;;;;;;;16.17;2.80;;;14.20;99.90;;;;;;5095323;28;20453;-73
2023/05/29 06:39:23;;;;;;;14.73;3.00;;;13.90;99.90;;;;;;5095092;28;20040;-73
2023/05/29 06:41:49;;;;;;;17.53;3.90;;;13.90;99.90;;;;;;5095495;28;20043;-73
2023/05/29 06:44:15;;;;;;;15.53;3.97;;;14.00;99.90;;;;;;5112423;28;20310;-73
2023/05/29 06:46:40;;;;;;;15.90;3.73;;;14.10;99.90;;;;;;5095246;28;20067;-73
2023/05/29 06:49:06;;;;;;;14.77;3.13;;;14.10;99.90;;;;;;5112771;28;20047;-74
2023/05/29 06:51:33;;;;;;;17.30;3.20;;;14.20;99.90;;;;;;5113375;28;20055;-73
2023/05/29 06:53:59;;;;;;;11.00;2.63;;;14.40;99.90;;;;;;5113326;28;20058;-73
2023/05/29 06:56:25;;;;;;;11.80;3.50;;;14.70;99.90;;;;;;5113321;28;20737;-73
2023/05/29 06:58:51;;;;;;;16.93;3.37;;;14.90;99.90;;;;;;5095237;28;20051;-73
2023/05/29 07:01:17;;;;;;;13.97;3.40;;;15.40;99.90;;;;;;5095094;28;20289;-73
2023/05/29 07:03:43;;;;;;;16.13;3.23;;;15.80;99.90;;;;;;5059533;28;20044;-73
2023/05/29 07:06:09;;;;;;;13.73;3.20;;;16.10;96.00;;;;;;5112949;28;20083;-73
2023/05/29 07:08:35;;;;;;;13.23;3.20;;;16.10;96.20;;;;;;5093806;28;20397;-72
2023/05/29 07:11:02;;;;;;;14.50;3.53;;;16.20;95.90;;;;;;5094237;28;20918;-72
2023/05/29 07:13:27;;;;;;;11.40;3.43;;;16.60;96.80;;;;;;5112847;28;20150;-72
2023/05/29 07:15:53;;;;;;;16.63;3.60;;;17.00;93.50;;;;;;5095150;28;20368;-73
2023/05/29 07:18:19;;;;;;;12.47;3.77;;;17.00;91.90;;;;;;5113198;28;20098;-73
2023/05/29 07:20:45;;;;;;;14.40;3.60;;;16.70;90.70;;;;;;5094335;28;20052;-73
2023/05/29 07:23:10;;;;;;;14.47;3.67;;;16.40;92.30;;;;;;5094866;28;20063;-74
2023/05/29 07:25:36;;;;;;;15.70;3.90;;;16.30;90.80;;;;;;5113019;28;20039;-74
2023/05/29 07:28:02;;;;;;;18.03;4.43;;;16.30;93.30;;;;;;5112547;28;20470;-75
2023/05/29 07:30:27;;;;;;;13.83;3.40;;;16.30;93.40;;;;;;5112710;28;20047;-74
2023/05/29 07:32:53;;;;;;;14.63;3.43;;;16.40;90.70;;;;;;5078236;28;20043;-73
2023/05/29 07:35:19;;;;;;;13.87;3.60;;;16.50;90.70;;;;;;5112659;28;20047;-73
2023/05/29 07:37:44;;;;;;;12.87;3.47;;;16.50;91.50;;;;;;5113160;28;20048;-73
2023/05/29 07:40:10;;;;;;;16.77;3.93;;;16.90;90.90;;;;;;5112322;28;20071;-72
2023/05/29 07:42:36;;;;;;;14.97;3.50;;;17.00;91.00;;;;;;5112635;28;20157;-72
2023/05/29 07:45:02;;;;;;;14.30;3.87;;;17.10;91.10;;;;;;5112911;28;20050;-72
2023/05/29 07:47:28;;;;;;;14.33;4.87;;;17.30;88.10;;;;;;5128803;28;20047;-72
2023/05/29 07:49:53;;;;;;;16.80;4.03;;;16.90;82.80;;;;;;5112763;28;20044;-71
2023/05/29 07:52:19;;;;;;;11.63;3.37;;;17.10;86.50;;;;;;5128488;28;20054;-72
2023/05/29 07:54:45;;;;;;;15.93;3.40;;;17.10;84.30;;;;;;5094350;28;20051;-72
2023/05/29 07:57:10;;;;;;;16.17;3.90;;;17.10;82.90;;;;;;5097929;28;20096;-72
2023/05/29 07:59:37;;;;;;;16.20;3.77;;;17.10;81.00;;;;;;5116030;28;20490;-72
2023/05/29 08:02:03;;;;;;;15.43;4.83;;;17.10;82.30;;;;;;5098202;28;20510;-73
2023/05/29 08:04:30;;;;;;;12.17;3.63;;;17.50;80.40;;;;;;5116046;28;20044;-73
2023/05/29 08:06:56;;;;;;;15.17;4.87;;;17.50;78.60;;;;;;5116277;28;20087;-72
2023/05/29 08:09:21;;;;;;;16.23;3.80;;;17.60;79.50;;;;;;5097865;28;20048;-72
2023/05/29 08:11:47;;;;;;;13.37;3.67;;;17.60;74.30;;;;;;5132298;27;20385;-73
2023/05/29 08:14:16;;;;;;;11.87;3.53;;;18.00;75.90;;;;;;5115049;28;20043;-74
2023/05/29 08:16:42;;;;;;;16.13;3.80;;;18.20;73.50;;;;;;5116114;28;20086;-73
2023/05/29 08:19:08;;;;;;;11.43;3.50;;;18.30;70.90;;;;;;5097719;28;20479;-73
2023/05/29 08:21:34;;;;;;;13.77;3.60;;;18.40;64.90;;;;;;5116051;28;20044;-73
2023/05/29 08:24:02;;;;;;;16.73;4.70;;;18.30;68.50;;;;;;5115943;28;20050;-73
2023/05/29 08:26:27;;;;;;;13.80;3.47;;;18.40;68.20;;;;;;5115659;28;20104;-73
2023/05/29 08:28:54;;;;;;;12.73;3.67;;;18.30;67.20;;;;;;5097941;28;20048;-72
2023/05/29 08:31:20;;;;;;;13.83;3.20;;;18.10;70.20;;;;;;5097709;28;20094;-72
2023/05/29 08:33:46;;;;;;;12.80;3.43;;;17.90;70.90;;;;;;5115863;28;20074;-74
2023/05/29 08:36:11;;;;;;;13.83;5.03;;;17.80;71.70;;;;;;5115016;28;20035;-74
2023/05/29 08:38:37;;;;;;;13.67;4.13;;;17.60;68.10;;;;;;5115543;28;20047;-73
2023/05/29 08:41:04;;;;;;;13.57;3.73;;;17.20;72.10;;;;;;5114807;28;20134;-73
2023/05/29 08:43:34;;;;;;;17.13;4.47;;;17.00;74.30;;;;;;5115571;28;20047;-73
2023/05/29 08:46:02;;;;;;;12.70;4.10;;;16.90;79.30;;;;;;5097802;28;20044;-72
2023/05/29 08:48:29;;;;;;;15.77;3.90;;;16.60;77.80;;;;;;5115359;28;20055;-74
2023/05/29 08:50:56;;;;;;;15.70;4.33;;;16.20;81.30;;;;;;5115515;28;20055;-68
2023/05/29 08:53:23;;;;;;;12.43;3.20;;;16.00;87.10;;;;;;5115001;28;20138;-69
2023/05/29 08:55:52;;;;;;;10.97;3.43;;;15.90;88.20;;;;;;5115391;28;20086;-67
2023/05/29 08:58:19;;;;;;;13.57;3.83;;;15.80;90.10;;;;;;5097502;28;20054;-67
2023/05/29 09:00:47;;;;;;;13.53;3.60;;;15.70;91.30;;;;;;5096391;28;20047;-68
2023/05/29 09:03:13;;;;;;;16.63;4.27;;;15.70;92.90;;;;;;5115161;28;20126;-67
2023/05/29 09:05:41;;;;;;;15.50;4.10;;;15.70;93.20;;;;;;5114810;28;20512;-67
2023/05/29 09:08:14;;;;;;;16.80;4.97;;;15.60;94.10;;;;;;5114389;28;20079;-68
2023/05/29 09:10:45;;;;;;;16.43;4.00;;;15.60;94.30;;;;;;5114610;28;20035;-67
2023/05/29 09:13:13;;;;;;;20.73;4.40;;;15.60;95.10;;;;;;5114947;28;20475;-67
2023/05/29 09:15:42;;;;;;;14.83;3.93;;;15.50;95.30;;;;;;5079763;28;20043;-67
2023/05/29 09:18:09;;;;;;;15.80;4.23;;;15.40;95.70;;;;;;5114725;28;20511;-67
2023/05/29 09:20:35;;;;;;;16.87;4.37;;;15.30;96.60;;;;;;5095977;28;20128;-66
2023/05/29 09:23:05;;;;;;;16.50;4.03;;;15.20;97.30;;;;;;5114750;28;20511;-68
2023/05/29 09:25:35;;;;;;;16.20;3.80;;;15.10;96.90;;;;;;5114514;28;20051;-71
2023/05/29 09:28:07;;;;;;;14.63;4.20;;;15.00;97.20;;;;;;5114694;28;20097;-76
2023/05/29 09:30:41;;;;;;;17.90;3.70;;;15.10;97.10;;;;;;5114435;28;20090;-72
2023/05/29 09:33:16;;;;;;;14.30;4.23;;;15.00;97.40;;;;;;5114945;28;20051;-74
2023/05/29 09:35:50;;;;;;;14.23;3.63;;;15.10;96.70;;;;;;5097162;28;20047;-74
2023/05/29 09:38:17;;;;;;;16.50;4.20;;;15.20;97.50;;;;;;5096571;28;20047;-73
2023/05/29 09:40:46;;;;;;;17.23;3.83;;;15.30;96.90;;;;;;5095877;28;20044;-73
2023/05/29 09:43:14;;;;;;;16.97;4.37;;;15.40;96.50;;;;;;5114397;28;20494;-73
2023/05/29 09:45:45;;;;;;;14.50;4.23;;;15.30;96.40;;;;;;5114019;28;20556;-76
2023/05/29 09:48:18;;;;;;;16.17;3.63;;;15.30;96.80;;;;;;5096423;28;20126;-72
2023/05/29 09:50:47;;;;;;;17.80;3.67;;;15.30;97.20;;;;;;5114202;28;20221;-72
2023/05/29 09:53:24;;;;;;;18.47;4.00;;;15.30;97.80;;;;;;5114484;28;20407;-72
2023/05/29 09:55:51;;;;;;;19.63;4.23;;;15.30;98.20;;;;;;5113906;28;20429;-72
2023/05/29 09:58:25;;;;;;;14.27;3.67;;;15.30;98.70;;;;;;5096178;28;20047;-72
2023/05/29 10:00:52;;;;;;;16.13;3.13;;;15.40;98.40;;;;;;5113771;28;20468;-72
2023/05/29 10:03:19;;;;;;;16.23;3.83;;;15.60;98.40;;;;;;5113935;28;20130;-72
2023/05/29 10:05:50;;;;;;;15.37;3.47;;;15.70;96.80;;;;;;5113656;28;20101;-72
2023/05/29 10:08:18;;;;;;;15.70;3.57;;;15.70;95.10;;;;;;5113889;28;20050;-72
2023/05/29 10:10:49;;;;;;;16.00;4.37;;;15.50;95.70;;;;;;5113642;28;20384;-71
2023/05/29 10:13:18;;;;;;;14.93;3.90;;;15.60;96.30;;;;;;5095706;28;20498;-70
2023/05/29 10:15:46;;;;;;;17.37;3.97;;;15.60;95.90;;;;;;5113446;28;20047;-70
2023/05/29 10:18:28;;;;;;;17.47;4.10;;;15.70;96.80;;;;;;5113633;28;20357;-72
2023/05/29 10:20:57;;;;;;;14.23;3.63;;;15.80;96.80;;;;;;5112823;28;20506;-72
2023/05/29 10:23:25;;;;;;;20.17;3.60;;;15.80;96.90;;;;;;5113660;28;20376;-71
2023/05/29 10:26:05;;;;;;;12.47;3.47;;;15.80;95.50;;;;;;5113395;28;20096;-71
2023/05/29 10:28:31;;;;;;;12.23;3.80;;;15.80;96.40;;;;;;5113711;28;20040;-72
2023/05/29 10:31:16;;;;;;;15.67;4.07;;;15.90;96.90;;;;;;5113577;28;20077;-69
2023/05/29 10:33:51;;;;;;;15.07;4.30;;;15.70;95.70;;;;;;5113130;28;20434;-69
2023/05/29 10:36:24;;;;;;;16.77;4.03;;;15.70;95.00;;;;;;5113604;28;20131;-71
2023/05/29 10:38:51;;;;;;;15.67;3.77;;;15.70;96.30;;;;;;5113211;28;20040;-71
2023/05/29 10:41:28;;;;;;;12.90;3.47;;;15.60;96.40;;;;;;5113048;28;20051;-71
2023/05/29 10:43:55;;;;;;;15.20;4.23;;;15.70;97.00;;;;;;5095066;28;20126;-70
2023/05/29 10:46:21;;;;;;;19.43;4.03;;;15.60;98.10;;;;;;5095134;28;20448;-71
2023/05/29 10:48:49;;;;;;;16.90;4.00;;;15.60;98.60;;;;;;5113061;28;20078;-71
2023/05/29 10:51:31;;;;;;;13.50;3.30;;;15.60;98.90;;;;;;5095405;28;20313;-71
2023/05/29 10:53:56;;;;;;;16.27;4.23;;;15.60;97.80;;;;;;5113132;28;20052;-70
2023/05/29 10:56:27;;;;;;;13.17;4.07;;;15.50;96.70;;;;;;5095176;28;20052;-71
2023/05/29 10:59:00;;;;;;;15.00;3.97;;;15.50;97.60;;;;;;5112720;28;20074;-72
2023/05/29 11:01:31;;;;;;;21.17;3.83;;;15.60;98.00;;;;;;5113266;28;20281;-69
2023/05/29 11:04:17;;;;;;;14.37;3.70;;;15.60;98.50;;;;;;5110384;28;20046;-69
2023/05/29 11:06:44;;;;;;;14.70;3.50;;;15.70;97.90;;;;;;5111166;28;20338;-69
2023/05/29 11:09:31;;;;;;;14.93;3.60;;;15.70;96.80;;;;;;5112714;28;20039;-69
2023/05/29 11:12:55;;;;;;;16.27;4.03;;;15.70;97.00;;;;;;5109991;28;20506;-69
2023/05/29 11:15:20;;;;;;;14.37;4.07;;;15.80;97.30;;;;;;5028648;28;20084;-69
2023/05/29 11:17:46;;;;;;;13.87;3.17;;;15.80;98.00;;;;;;5013838;28;20737;-69
2023/05/29 11:20:35;;;;;;;14.30;3.70;;;15.90;98.00;;;;;;5079517;28;20052;-69
2023/05/29 11:23:03;;;;;;;13.50;3.67;;;15.80;97.40;;;;;;5112846;28;20123;-68
2023/05/29 11:25:34;;;;;;;16.90;4.27;;;15.80;97.80;;;;;;5095084;28;20724;-69
2023/05/29 11:28:00;;;;;;;19.83;4.00;;;15.70;97.70;;;;;;5094773;28;20047;-71
2023/05/29 11:30:26;;;;;;;14.47;3.57;;;15.70;98.50;;;;;;5095797;28;20062;-69
2023/05/29 11:32:53;;;;;;;11.47;3.30;;;15.80;99.00;;;;;;5116832;28;20047;-70
2023/05/29 11:35:22;;;;;;;14.50;3.60;;;15.90;98.40;;;;;;5117109;28;20147;-69
2023/05/29 11:37:48;;;;;;;17.60;4.40;;;15.90;97.60;;;;;;5081873;28;20066;-70
2023/05/29 11:40:15;;;;;;;17.57;4.37;;;15.80;97.00;;;;;;5116733;28;20043;-70
2023/05/29 11:42:46;;;;;;;13.13;3.50;;;15.70;97.60;;;;;;5098316;28;20054;-70
2023/05/29 11:45:21;;;;;;;15.27;4.63;;;15.70;98.70;;;;;;5117022;28;20109;-69
2023/05/29 11:48:02;;;;;;;15.83;3.60;;;15.70;98.90;;;;;;5116551;28;20047;-69
2023/05/29 11:50:32;;;;;;;16.00;3.83;;;15.70;99.00;;;;;;5116726;28;20366;-69
2023/05/29 11:52:59;;;;;;;15.07;3.60;;;15.60;99.40;;;;;;5116368;28;20361;-69
2023/05/29 11:55:26;;;;;;;15.80;3.27;;;15.70;98.70;;;;;;5116543;28;20043;-69
2023/05/29 11:57:57;;;;;;;11.97;3.63;;;15.60;98.80;;;;;;5097927;28;20092;-69
2023/05/29 12:00:24;;;;;;;17.17;3.60;;;15.50;97.80;;;;;;5098341;28;20729;-70
2023/05/29 12:02:51;;;;;;;13.23;3.07;;;15.50;97.40;;;;;;5098054;28;20047;-68
2023/05/29 12:05:21;;;;;;;13.40;3.60;;;15.50;98.10;;;;;;5116312;28;20326;-68
2023/05/29 12:07:52;;;;;;;14.77;3.50;;;15.60;98.20;;;;;;5115707;28;20851;-70
2023/05/29 12:10:20;;;;;;;13.00;3.60;;;15.60;98.80;;;;;;5116100;28;20745;-70
2023/05/29 12:12:51;;;;;;;14.67;3.97;;;15.70;98.80;;;;;;5115866;28;20625;-70
2023/05/29 12:15:18;;;;;;;12.83;3.83;;;15.70;97.70;;;;;;5098092;28;20325;-70
2023/05/29 12:17:45;;;;;;;12.47;3.43;;;15.80;98.80;;;;;;5116107;28;20280;-71
2023/05/29 12:20:12;;;;;;;11.93;3.10;;;15.80;98.30;;;;;;5115930;28;20310;-70
2023/05/29 12:22:40;;;;;;;17.63;4.37;;;15.90;96.80;;;;;;5115953;28;20321;-70
2023/05/29 12:25:11;;;;;;;11.50;2.83;;;15.80;97.20;;;;;;5115697;28;20112;-70
2023/05/29 12:27:46;;;;;;;13.87;2.93;;;15.80;96.50;;;;;;5116068;28;20122;-70
2023/05/29 12:30:16;;;;;;;14.77;3.23;;;15.80;95.80;;;;;;5116139;28;20356;-70
2023/05/29 12:32:47;;;;;;;12.50;3.60;;;15.80;96.20;;;;;;5115814;28;20856;-70
2023/05/29 12:35:13;;;;;;;16.70;3.00;;;15.80;95.30;;;;;;5116096;28;20282;-70
2023/05/29 12:38:02;;;;;;;16.97;3.13;;;15.90;93.90;;;;;;5115918;28;20125;-70
2023/05/29 12:40:29;;;;;;;17.97;3.10;;;15.80;96.30;;;;;;5115509;28;20476;-69